sensor_id;sensor_type;location;lat;lon;timestamp;P1;durP1;ratioP1;P2;durP2;ratioP2
75649;SDS011;64245;51.282;22.494;2023-04-06T00:00:45;5.10;;;2.78;;
75649;SDS011;64245;51.282;22.494;2023-04-06T00:03:17;8.40;;;4.50;;
75649;SDS011;64245;51.282;22.494;2023-04-06T00:05:42;6.75;;;3.55;;
75649;SDS011;64245;51.282;22.494;2023-04-06T00:08:08;5.10;;;2.80;;
75649;SDS011;64245;51.282;22.494;2023-04-06T00:10:34;6.75;;;2.88;;
75649;SDS011;64245;51.282;22.494;2023-04-06T00:12:59;5.80;;;3.15;;
75649;SDS011;64245;51.282;22.494;2023-04-06T00:15:25;3.75;;;2.08;;
75649;SDS011;64245;51.282;22.494;2023-04-06T00:17:51;9.30;;;3.63;;
75649;SDS011;64245;51.282;22.494;2023-04-06T00:20:17;4.80;;;2.38;;
75649;SDS011;64245;51.282;22.494;2023-04-06T00:22:44;3.15;;;2.22;;
75649;SDS011;64245;51.282;22.494;2023-04-06T00:25:10;5.95;;;3.13;;
75649;SDS011;64245;51.282;22.494;2023-04-06T00:27:39;4.05;;;2.38;;
75649;SDS011;64245;51.282;22.494;2023-04-06T00:30:05;5.45;;;2.92;;
75649;SDS011;64245;51.282;22.494;2023-04-06T00:32:31;8.70;;;3.30;;
75649;SDS011;64245;51.282;22.494;2023-04-06T00:34:57;5.15;;;2.60;;
75649;SDS011;64245;51.282;22.494;2023-04-06T00:37:24;6.28;;;3.30;;
75649;SDS011;64245;51.282;22.494;2023-04-06T00:39:49;6.03;;;3.00;;
75649;SDS011;64245;51.282;22.494;2023-04-06T00:42:17;2.80;;;1.77;;
75649;SDS011;64245;51.282;22.494;2023-04-06T00:44:50;5.35;;;3.10;;
75649;SDS011;64245;51.282;22.494;2023-04-06T00:47:23;6.30;;;3.33;;
75649;SDS011;64245;51.282;22.494;2023-04-06T00:52:21;6.30;;;2.53;;
75649;SDS011;64245;51.282;22.494;2023-04-06T00:54:47;4.28;;;2.60;;
75649;SDS011;64245;51.282;22.494;2023-04-06T00:57:14;6.70;;;3.05;;
75649;SDS011;64245;51.282;22.494;2023-04-06T00:59:40;6.95;;;3.42;;
75649;SDS011;64245;51.282;22.494;2023-04-06T01:02:08;7.43;;;3.10;;
75649;SDS011;64245;51.282;22.494;2023-04-06T01:04:34;6.00;;;3.13;;
75649;SDS011;64245;51.282;22.494;2023-04-06T01:07:00;5.43;;;2.95;;
75649;SDS011;64245;51.282;22.494;2023-04-06T01:09:29;4.15;;;2.35;;
75649;SDS011;64245;51.282;22.494;2023-04-06T01:11:56;5.70;;;2.80;;
75649;SDS011;64245;51.282;22.494;2023-04-06T01:14:23;4.85;;;2.50;;
75649;SDS011;64245;51.282;22.494;2023-04-06T01:16:49;4.13;;;2.42;;
75649;SDS011;64245;51.282;22.494;2023-04-06T01:19:15;5.72;;;3.00;;
75649;SDS011;64245;51.282;22.494;2023-04-06T01:21:41;6.10;;;2.58;;
75649;SDS011;64245;51.282;22.494;2023-04-06T01:24:08;4.88;;;3.20;;
75649;SDS011;64245;51.282;22.494;2023-04-06T01:26:34;4.10;;;2.45;;
75649;SDS011;64245;51.282;22.494;2023-04-06T01:29:01;8.05;;;2.90;;
75649;SDS011;64245;51.282;22.494;2023-04-06T01:31:28;4.55;;;2.58;;
75649;SDS011;64245;51.282;22.494;2023-04-06T01:33:53;6.80;;;2.83;;
75649;SDS011;64245;51.282;22.494;2023-04-06T01:36:20;5.90;;;2.88;;
75649;SDS011;64245;51.282;22.494;2023-04-06T01:38:45;6.32;;;2.60;;
75649;SDS011;64245;51.282;22.494;2023-04-06T01:41:11;5.65;;;2.80;;
75649;SDS011;64245;51.282;22.494;2023-04-06T01:43:37;5.00;;;2.72;;
75649;SDS011;64245;51.282;22.494;2023-04-06T01:46:03;6.32;;;2.78;;
75649;SDS011;64245;51.282;22.494;2023-04-06T01:48:29;6.07;;;2.70;;
75649;SDS011;64245;51.282;22.494;2023-04-06T01:50:54;4.90;;;2.30;;
75649;SDS011;64245;51.282;22.494;2023-04-06T01:53:20;6.47;;;3.13;;
75649;SDS011;64245;51.282;22.494;2023-04-06T01:55:46;7.97;;;3.92;;
75649;SDS011;64245;51.282;22.494;2023-04-06T01:58:12;6.95;;;2.85;;
75649;SDS011;64245;51.282;22.494;2023-04-06T02:00:39;6.72;;;2.83;;
75649;SDS011;64245;51.282;22.494;2023-04-06T02:03:05;7.07;;;3.22;;
75649;SDS011;64245;51.282;22.494;2023-04-06T02:05:31;7.38;;;3.40;;
75649;SDS011;64245;51.282;22.494;2023-04-06T02:08:03;5.82;;;2.90;;
75649;SDS011;64245;51.282;22.494;2023-04-06T02:10:31;5.10;;;2.08;;
75649;SDS011;64245;51.282;22.494;2023-04-06T02:12:56;5.63;;;2.90;;
75649;SDS011;64245;51.282;22.494;2023-04-06T02:15:22;4.35;;;2.35;;
75649;SDS011;64245;51.282;22.494;2023-04-06T02:17:48;6.60;;;3.10;;
75649;SDS011;64245;51.282;22.494;2023-04-06T02:20:13;3.58;;;2.65;;
75649;SDS011;64245;51.282;22.494;2023-04-06T02:22:39;6.30;;;2.58;;
75649;SDS011;64245;51.282;22.494;2023-04-06T02:25:05;4.47;;;2.33;;
75649;SDS011;64245;51.282;22.494;2023-04-06T02:27:31;4.78;;;2.08;;
75649;SDS011;64245;51.282;22.494;2023-04-06T02:29:57;4.43;;;2.45;;
75649;SDS011;64245;51.282;22.494;2023-04-06T02:32:23;4.25;;;2.33;;
75649;SDS011;64245;51.282;22.494;2023-04-06T02:34:49;5.05;;;2.20;;
75649;SDS011;64245;51.282;22.494;2023-04-06T02:37:14;4.45;;;2.20;;
75649;SDS011;64245;51.282;22.494;2023-04-06T02:39:40;3.65;;;1.70;;
75649;SDS011;64245;51.282;22.494;2023-04-06T02:42:06;5.43;;;3.20;;
75649;SDS011;64245;51.282;22.494;2023-04-06T02:44:32;5.30;;;2.38;;
75649;SDS011;64245;51.282;22.494;2023-04-06T02:46:57;6.10;;;2.88;;
75649;SDS011;64245;51.282;22.494;2023-04-06T02:49:23;4.20;;;2.72;;
75649;SDS011;64245;51.282;22.494;2023-04-06T02:51:48;5.05;;;2.60;;
75649;SDS011;64245;51.282;22.494;2023-04-06T02:54:14;7.18;;;3.63;;
75649;SDS011;64245;51.282;22.494;2023-04-06T02:56:40;2.70;;;1.65;;
75649;SDS011;64245;51.282;22.494;2023-04-06T02:59:05;5.70;;;2.45;;
75649;SDS011;64245;51.282;22.494;2023-04-06T03:01:31;4.05;;;1.98;;
75649;SDS011;64245;51.282;22.494;2023-04-06T03:03:57;5.25;;;1.85;;
75649;SDS011;64245;51.282;22.494;2023-04-06T03:06:22;4.25;;;2.25;;
75649;SDS011;64245;51.282;22.494;2023-04-06T03:08:48;3.80;;;2.60;;
75649;SDS011;64245;51.282;22.494;2023-04-06T03:11:14;4.68;;;2.58;;
75649;SDS011;64245;51.282;22.494;2023-04-06T03:13:40;3.50;;;2.33;;
75649;SDS011;64245;51.282;22.494;2023-04-06T03:16:05;5.70;;;2.55;;
75649;SDS011;64245;51.282;22.494;2023-04-06T03:18:31;2.83;;;1.90;;
75649;SDS011;64245;51.282;22.494;2023-04-06T03:20:58;5.50;;;2.40;;
75649;SDS011;64245;51.282;22.494;2023-04-06T03:23:25;4.72;;;1.52;;
75649;SDS011;64245;51.282;22.494;2023-04-06T03:25:51;3.75;;;2.17;;
75649;SDS011;64245;51.282;22.494;2023-04-06T03:28:16;4.10;;;2.65;;
75649;SDS011;64245;51.282;22.494;2023-04-06T03:30:42;2.60;;;1.67;;
75649;SDS011;64245;51.282;22.494;2023-04-06T03:33:08;5.00;;;2.17;;
75649;SDS011;64245;51.282;22.494;2023-04-06T03:35:33;3.05;;;2.00;;
75649;SDS011;64245;51.282;22.494;2023-04-06T03:37:59;3.38;;;1.80;;
75649;SDS011;64245;51.282;22.494;2023-04-06T03:40:25;4.90;;;1.63;;
75649;SDS011;64245;51.282;22.494;2023-04-06T03:42:51;2.60;;;1.73;;
75649;SDS011;64245;51.282;22.494;2023-04-06T03:45:16;3.05;;;1.73;;
75649;SDS011;64245;51.282;22.494;2023-04-06T03:47:42;4.70;;;2.10;;
75649;SDS011;64245;51.282;22.494;2023-04-06T03:50:07;4.45;;;2.90;;
75649;SDS011;64245;51.282;22.494;2023-04-06T03:52:34;5.38;;;3.20;;
75649;SDS011;64245;51.282;22.494;2023-04-06T03:55:01;3.65;;;2.42;;
75649;SDS011;64245;51.282;22.494;2023-04-06T03:57:26;4.55;;;2.30;;
75649;SDS011;64245;51.282;22.494;2023-04-06T03:59:52;5.10;;;2.05;;
75649;SDS011;64245;51.282;22.494;2023-04-06T04:02:18;3.55;;;2.22;;
75649;SDS011;64245;51.282;22.494;2023-04-06T04:04:43;4.85;;;2.50;;
75649;SDS011;64245;51.282;22.494;2023-04-06T04:07:09;6.15;;;3.00;;
75649;SDS011;64245;51.282;22.494;2023-04-06T04:09:34;4.75;;;1.42;;
75649;SDS011;64245;51.282;22.494;2023-04-06T04:12:02;9.23;;;2.85;;
75649;SDS011;64245;51.282;22.494;2023-04-06T04:14:27;6.03;;;3.20;;
75649;SDS011;64245;51.282;22.494;2023-04-06T04:16:53;4.22;;;2.67;;
75649;SDS011;64245;51.282;22.494;2023-04-06T04:19:19;4.45;;;1.95;;
75649;SDS011;64245;51.282;22.494;2023-04-06T04:21:46;7.63;;;3.38;;
75649;SDS011;64245;51.282;22.494;2023-04-06T04:24:12;4.07;;;2.30;;
75649;SDS011;64245;51.282;22.494;2023-04-06T04:26:39;6.05;;;2.53;;
75649;SDS011;64245;51.282;22.494;2023-04-06T04:29:05;2.42;;;1.60;;
75649;SDS011;64245;51.282;22.494;2023-04-06T04:31:31;5.78;;;3.03;;
75649;SDS011;64245;51.282;22.494;2023-04-06T04:33:57;3.25;;;2.45;;
75649;SDS011;64245;51.282;22.494;2023-04-06T04:36:25;4.15;;;2.33;;
75649;SDS011;64245;51.282;22.494;2023-04-06T04:38:51;4.57;;;2.75;;
75649;SDS011;64245;51.282;22.494;2023-04-06T04:41:17;4.72;;;3.17;;
75649;SDS011;64245;51.282;22.494;2023-04-06T04:43:43;8.75;;;3.45;;
75649;SDS011;64245;51.282;22.494;2023-04-06T04:46:09;3.45;;;2.08;;
75649;SDS011;64245;51.282;22.494;2023-04-06T04:48:35;6.15;;;2.90;;
75649;SDS011;64245;51.282;22.494;2023-04-06T04:51:01;6.47;;;2.70;;
75649;SDS011;64245;51.282;22.494;2023-04-06T04:53:27;5.32;;;2.60;;
75649;SDS011;64245;51.282;22.494;2023-04-06T04:55:52;4.97;;;3.13;;
75649;SDS011;64245;51.282;22.494;2023-04-06T04:58:18;4.47;;;2.70;;
75649;SDS011;64245;51.282;22.494;2023-04-06T05:00:45;5.72;;;2.55;;
75649;SDS011;64245;51.282;22.494;2023-04-06T05:03:22;3.47;;;2.10;;
75649;SDS011;64245;51.282;22.494;2023-04-06T05:05:49;4.45;;;2.15;;
75649;SDS011;64245;51.282;22.494;2023-04-06T05:08:15;6.00;;;3.67;;
75649;SDS011;64245;51.282;22.494;2023-04-06T05:10:41;4.65;;;2.65;;
75649;SDS011;64245;51.282;22.494;2023-04-06T05:13:07;4.82;;;2.47;;
75649;SDS011;64245;51.282;22.494;2023-04-06T05:15:33;5.05;;;2.05;;
75649;SDS011;64245;51.282;22.494;2023-04-06T05:18:00;6.10;;;3.35;;
75649;SDS011;64245;51.282;22.494;2023-04-06T05:20:26;7.40;;;2.88;;
75649;SDS011;64245;51.282;22.494;2023-04-06T05:22:53;7.47;;;3.15;;
75649;SDS011;64245;51.282;22.494;2023-04-06T05:25:19;5.95;;;3.40;;
75649;SDS011;64245;51.282;22.494;2023-04-06T05:27:45;6.28;;;3.55;;
75649;SDS011;64245;51.282;22.494;2023-04-06T05:30:11;7.38;;;4.03;;
75649;SDS011;64245;51.282;22.494;2023-04-06T05:32:36;4.65;;;2.70;;
75649;SDS011;64245;51.282;22.494;2023-04-06T05:35:02;7.35;;;4.28;;
75649;SDS011;64245;51.282;22.494;2023-04-06T05:37:28;8.70;;;2.97;;
75649;SDS011;64245;51.282;22.494;2023-04-06T05:39:53;7.78;;;3.90;;
75649;SDS011;64245;51.282;22.494;2023-04-06T05:42:19;8.38;;;4.75;;
75649;SDS011;64245;51.282;22.494;2023-04-06T05:44:45;6.35;;;3.63;;
75649;SDS011;64245;51.282;22.494;2023-04-06T05:47:10;4.68;;;3.50;;
75649;SDS011;64245;51.282;22.494;2023-04-06T05:49:36;6.65;;;3.35;;
75649;SDS011;64245;51.282;22.494;2023-04-06T05:52:02;8.60;;;3.40;;
75649;SDS011;64245;51.282;22.494;2023-04-06T05:54:27;8.32;;;3.25;;
75649;SDS011;64245;51.282;22.494;2023-04-06T05:56:53;8.45;;;4.65;;
75649;SDS011;64245;51.282;22.494;2023-04-06T05:59:19;6.70;;;3.00;;
75649;SDS011;64245;51.282;22.494;2023-04-06T06:01:45;8.00;;;2.65;;
75649;SDS011;64245;51.282;22.494;2023-04-06T06:04:11;6.82;;;3.30;;
75649;SDS011;64245;51.282;22.494;2023-04-06T06:06:37;4.32;;;3.08;;
75649;SDS011;64245;51.282;22.494;2023-04-06T06:09:02;5.72;;;3.25;;
75649;SDS011;64245;51.282;22.494;2023-04-06T06:11:28;7.63;;;3.67;;
75649;SDS011;64245;51.282;22.494;2023-04-06T06:13:55;8.70;;;5.38;;
75649;SDS011;64245;51.282;22.494;2023-04-06T06:16:21;10.05;;;4.25;;
75649;SDS011;64245;51.282;22.494;2023-04-06T06:18:47;6.65;;;4.03;;
75649;SDS011;64245;51.282;22.494;2023-04-06T06:21:13;5.93;;;2.50;;
75649;SDS011;64245;51.282;22.494;2023-04-06T06:23:39;5.90;;;2.30;;
75649;SDS011;64245;51.282;22.494;2023-04-06T06:26:05;6.78;;;3.08;;
75649;SDS011;64245;51.282;22.494;2023-04-06T06:28:30;6.28;;;3.55;;
75649;SDS011;64245;51.282;22.494;2023-04-06T06:30:56;9.65;;;4.95;;
75649;SDS011;64245;51.282;22.494;2023-04-06T06:33:22;8.50;;;3.85;;
75649;SDS011;64245;51.282;22.494;2023-04-06T06:35:48;6.85;;;3.85;;
75649;SDS011;64245;51.282;22.494;2023-04-06T06:38:14;9.45;;;3.92;;
75649;SDS011;64245;51.282;22.494;2023-04-06T06:40:40;6.57;;;2.55;;
75649;SDS011;64245;51.282;22.494;2023-04-06T06:43:06;7.95;;;4.18;;
75649;SDS011;64245;51.282;22.494;2023-04-06T06:45:32;9.88;;;4.75;;
75649;SDS011;64245;51.282;22.494;2023-04-06T06:47:58;5.55;;;3.33;;
75649;SDS011;64245;51.282;22.494;2023-04-06T06:50:23;7.80;;;4.22;;
75649;SDS011;64245;51.282;22.494;2023-04-06T06:52:49;6.57;;;3.13;;
75649;SDS011;64245;51.282;22.494;2023-04-06T06:55:15;5.65;;;2.70;;
75649;SDS011;64245;51.282;22.494;2023-04-06T06:57:40;16.95;;;4.03;;
75649;SDS011;64245;51.282;22.494;2023-04-06T07:00:08;7.93;;;4.18;;
75649;SDS011;64245;51.282;22.494;2023-04-06T07:02:34;7.75;;;3.95;;
75649;SDS011;64245;51.282;22.494;2023-04-06T07:05:01;8.50;;;4.68;;
75649;SDS011;64245;51.282;22.494;2023-04-06T07:07:27;8.52;;;4.15;;
75649;SDS011;64245;51.282;22.494;2023-04-06T07:09:52;8.57;;;4.60;;
75649;SDS011;64245;51.282;22.494;2023-04-06T07:12:18;9.43;;;4.50;;
75649;SDS011;64245;51.282;22.494;2023-04-06T07:14:44;7.45;;;4.32;;
75649;SDS011;64245;51.282;22.494;2023-04-06T07:17:10;7.50;;;4.40;;
75649;SDS011;64245;51.282;22.494;2023-04-06T07:19:36;4.93;;;2.90;;
75649;SDS011;64245;51.282;22.494;2023-04-06T07:22:02;8.05;;;5.13;;
75649;SDS011;64245;51.282;22.494;2023-04-06T07:24:28;8.65;;;4.68;;
75649;SDS011;64245;51.282;22.494;2023-04-06T07:26:54;12.43;;;7.13;;
75649;SDS011;64245;51.282;22.494;2023-04-06T07:29:21;11.23;;;4.90;;
75649;SDS011;64245;51.282;22.494;2023-04-06T07:31:48;11.57;;;5.35;;
75649;SDS011;64245;51.282;22.494;2023-04-06T07:34:14;14.18;;;5.22;;
75649;SDS011;64245;51.282;22.494;2023-04-06T07:36:40;7.93;;;4.18;;
75649;SDS011;64245;51.282;22.494;2023-04-06T07:39:06;11.27;;;6.50;;
75649;SDS011;64245;51.282;22.494;2023-04-06T07:41:32;11.05;;;6.53;;
75649;SDS011;64245;51.282;22.494;2023-04-06T07:43:58;6.63;;;4.13;;
75649;SDS011;64245;51.282;22.494;2023-04-06T07:46:24;4.03;;;2.92;;
75649;SDS011;64245;51.282;22.494;2023-04-06T07:48:49;7.95;;;3.97;;
75649;SDS011;64245;51.282;22.494;2023-04-06T07:51:16;7.57;;;4.75;;
75649;SDS011;64245;51.282;22.494;2023-04-06T07:53:43;8.52;;;5.40;;
75649;SDS011;64245;51.282;22.494;2023-04-06T07:56:10;7.72;;;4.20;;
75649;SDS011;64245;51.282;22.494;2023-04-06T07:58:35;14.07;;;7.75;;
75649;SDS011;64245;51.282;22.494;2023-04-06T08:01:01;5.82;;;4.18;;
75649;SDS011;64245;51.282;22.494;2023-04-06T08:03:27;8.00;;;4.38;;
75649;SDS011;64245;51.282;22.494;2023-04-06T08:05:53;9.60;;;5.55;;
75649;SDS011;64245;51.282;22.494;2023-04-06T08:08:19;8.35;;;4.10;;
75649;SDS011;64245;51.282;22.494;2023-04-06T08:10:47;9.27;;;5.38;;
75649;SDS011;64245;51.282;22.494;2023-04-06T08:13:13;10.93;;;6.47;;
75649;SDS011;64245;51.282;22.494;2023-04-06T08:15:39;7.65;;;4.00;;
75649;SDS011;64245;51.282;22.494;2023-04-06T08:18:05;11.48;;;5.50;;
75649;SDS011;64245;51.282;22.494;2023-04-06T08:20:31;10.23;;;4.80;;
75649;SDS011;64245;51.282;22.494;2023-04-06T08:22:56;10.63;;;4.65;;
75649;SDS011;64245;51.282;22.494;2023-04-06T08:25:22;8.10;;;4.22;;
75649;SDS011;64245;51.282;22.494;2023-04-06T08:27:48;5.05;;;3.90;;
75649;SDS011;64245;51.282;22.494;2023-04-06T08:30:14;5.50;;;2.42;;
75649;SDS011;64245;51.282;22.494;2023-04-06T08:32:41;12.27;;;7.15;;
75649;SDS011;64245;51.282;22.494;2023-04-06T08:35:07;5.72;;;3.40;;
75649;SDS011;64245;51.282;22.494;2023-04-06T08:37:33;10.18;;;5.85;;
75649;SDS011;64245;51.282;22.494;2023-04-06T08:39:59;10.45;;;5.28;;
75649;SDS011;64245;51.282;22.494;2023-04-06T08:42:25;9.45;;;6.30;;
75649;SDS011;64245;51.282;22.494;2023-04-06T08:47:20;8.73;;;4.95;;
75649;SDS011;64245;51.282;22.494;2023-04-06T08:49:46;3.97;;;3.38;;
75649;SDS011;64245;51.282;22.494;2023-04-06T08:52:12;5.43;;;3.30;;
75649;SDS011;64245;51.282;22.494;2023-04-06T08:54:38;8.75;;;4.90;;
75649;SDS011;64245;51.282;22.494;2023-04-06T08:57:04;4.70;;;3.10;;
75649;SDS011;64245;51.282;22.494;2023-04-06T08:59:31;9.48;;;4.13;;
75649;SDS011;64245;51.282;22.494;2023-04-06T09:01:57;10.15;;;4.88;;
75649;SDS011;64245;51.282;22.494;2023-04-06T09:04:28;7.90;;;4.85;;
75649;SDS011;64245;51.282;22.494;2023-04-06T09:06:53;8.65;;;3.80;;
75649;SDS011;64245;51.282;22.494;2023-04-06T09:09:19;6.95;;;4.32;;
75649;SDS011;64245;51.282;22.494;2023-04-06T09:11:46;7.53;;;4.82;;
75649;SDS011;64245;51.282;22.494;2023-04-06T09:14:13;8.27;;;4.53;;
75649;SDS011;64245;51.282;22.494;2023-04-06T09:16:41;7.43;;;4.05;;
75649;SDS011;64245;51.282;22.494;2023-04-06T09:19:08;8.80;;;4.40;;
75649;SDS011;64245;51.282;22.494;2023-04-06T09:21:34;7.30;;;3.97;;
75649;SDS011;64245;51.282;22.494;2023-04-06T09:24:01;8.25;;;5.70;;
75649;SDS011;64245;51.282;22.494;2023-04-06T09:26:27;6.05;;;3.53;;
75649;SDS011;64245;51.282;22.494;2023-04-06T09:28:54;8.88;;;4.18;;
75649;SDS011;64245;51.282;22.494;2023-04-06T09:31:21;7.28;;;4.20;;
75649;SDS011;64245;51.282;22.494;2023-04-06T09:33:49;10.75;;;5.63;;
75649;SDS011;64245;51.282;22.494;2023-04-06T09:36:15;10.23;;;5.68;;
75649;SDS011;64245;51.282;22.494;2023-04-06T09:41:23;8.93;;;4.75;;
75649;SDS011;64245;51.282;22.494;2023-04-06T09:43:51;8.25;;;3.55;;
75649;SDS011;64245;51.282;22.494;2023-04-06T09:46:26;9.23;;;5.65;;
75649;SDS011;64245;51.282;22.494;2023-04-06T09:48:53;9.50;;;5.07;;
75649;SDS011;64245;51.282;22.494;2023-04-06T09:51:19;12.27;;;6.10;;
75649;SDS011;64245;51.282;22.494;2023-04-06T09:53:45;14.50;;;7.38;;
75649;SDS011;64245;51.282;22.494;2023-04-06T09:56:17;9.20;;;4.20;;
75649;SDS011;64245;51.282;22.494;2023-04-06T09:58:49;13.15;;;6.03;;
75649;SDS011;64245;51.282;22.494;2023-04-06T10:01:17;12.40;;;7.10;;
75649;SDS011;64245;51.282;22.494;2023-04-06T10:03:54;10.57;;;7.47;;
75649;SDS011;64245;51.282;22.494;2023-04-06T10:06:26;12.27;;;8.30;;
75649;SDS011;64245;51.282;22.494;2023-04-06T10:08:54;9.93;;;6.55;;
75649;SDS011;64245;51.282;22.494;2023-04-06T10:11:21;10.85;;;6.38;;
75649;SDS011;64245;51.282;22.494;2023-04-06T10:13:48;5.90;;;4.22;;
75649;SDS011;64245;51.282;22.494;2023-04-06T10:16:14;9.25;;;5.63;;
75649;SDS011;64245;51.282;22.494;2023-04-06T10:18:42;6.57;;;3.15;;
75649;SDS011;64245;51.282;22.494;2023-04-06T10:21:14;9.25;;;5.65;;
75649;SDS011;64245;51.282;22.494;2023-04-06T10:23:44;9.85;;;6.25;;
75649;SDS011;64245;51.282;22.494;2023-04-06T10:26:13;12.00;;;5.85;;
75649;SDS011;64245;51.282;22.494;2023-04-06T10:28:42;7.38;;;4.32;;
75649;SDS011;64245;51.282;22.494;2023-04-06T10:31:09;9.45;;;5.72;;
75649;SDS011;64245;51.282;22.494;2023-04-06T10:33:35;9.80;;;4.70;;
75649;SDS011;64245;51.282;22.494;2023-04-06T10:36:14;9.75;;;5.75;;
75649;SDS011;64245;51.282;22.494;2023-04-06T10:38:46;12.40;;;6.75;;
75649;SDS011;64245;51.282;22.494;2023-04-06T10:41:12;9.82;;;5.55;;
75649;SDS011;64245;51.282;22.494;2023-04-06T10:43:39;8.93;;;4.85;;
75649;SDS011;64245;51.282;22.494;2023-04-06T10:46:06;11.30;;;6.43;;
75649;SDS011;64245;51.282;22.494;2023-04-06T10:48:43;9.32;;;5.00;;
75649;SDS011;64245;51.282;22.494;2023-04-06T10:51:14;7.93;;;5.85;;
75649;SDS011;64245;51.282;22.494;2023-04-06T10:53:42;11.68;;;6.90;;
75649;SDS011;64245;51.282;22.494;2023-04-06T10:56:15;12.10;;;6.32;;
75649;SDS011;64245;51.282;22.494;2023-04-06T10:58:46;16.30;;;10.27;;
75649;SDS011;64245;51.282;22.494;2023-04-06T11:01:16;15.10;;;8.63;;
75649;SDS011;64245;51.282;22.494;2023-04-06T11:03:47;15.70;;;7.03;;
75649;SDS011;64245;51.282;22.494;2023-04-06T11:06:22;13.88;;;6.95;;
75649;SDS011;64245;51.282;22.494;2023-04-06T11:08:51;16.65;;;10.77;;
75649;SDS011;64245;51.282;22.494;2023-04-06T11:11:18;11.60;;;5.75;;
75649;SDS011;64245;51.282;22.494;2023-04-06T11:13:46;8.15;;;4.78;;
75649;SDS011;64245;51.282;22.494;2023-04-06T11:16:33;14.63;;;8.43;;
75649;SDS011;64245;51.282;22.494;2023-04-06T11:18:59;9.38;;;5.35;;
75649;SDS011;64245;51.282;22.494;2023-04-06T11:24:06;11.32;;;6.07;;
75649;SDS011;64245;51.282;22.494;2023-04-06T11:26:37;12.63;;;7.18;;
75649;SDS011;64245;51.282;22.494;2023-04-06T11:29:07;18.20;;;9.77;;
75649;SDS011;64245;51.282;22.494;2023-04-06T11:31:39;9.20;;;4.75;;
75649;SDS011;64245;51.282;22.494;2023-04-06T11:34:13;9.45;;;6.50;;
75649;SDS011;64245;51.282;22.494;2023-04-06T11:36:42;6.72;;;3.85;;
75649;SDS011;64245;51.282;22.494;2023-04-06T11:39:09;11.07;;;5.72;;
75649;SDS011;64245;51.282;22.494;2023-04-06T11:41:35;9.57;;;6.22;;
75649;SDS011;64245;51.282;22.494;2023-04-06T11:44:01;6.80;;;4.15;;
75649;SDS011;64245;51.282;22.494;2023-04-06T11:48:59;12.15;;;7.72;;
75649;SDS011;64245;51.282;22.494;2023-04-06T11:51:26;7.72;;;4.32;;
75649;SDS011;64245;51.282;22.494;2023-04-06T11:53:53;9.20;;;5.43;;
75649;SDS011;64245;51.282;22.494;2023-04-06T11:56:28;7.32;;;5.25;;
75649;SDS011;64245;51.282;22.494;2023-04-06T11:58:56;10.45;;;5.18;;
75649;SDS011;64245;51.282;22.494;2023-04-06T12:01:23;9.40;;;4.47;;
75649;SDS011;64245;51.282;22.494;2023-04-06T12:03:51;6.32;;;4.03;;
75649;SDS011;64245;51.282;22.494;2023-04-06T12:06:17;9.57;;;6.20;;
75649;SDS011;64245;51.282;22.494;2023-04-06T12:08:43;8.65;;;5.03;;
75649;SDS011;64245;51.282;22.494;2023-04-06T12:11:10;9.25;;;3.95;;
75649;SDS011;64245;51.282;22.494;2023-04-06T12:13:37;11.00;;;6.05;;
75649;SDS011;64245;51.282;22.494;2023-04-06T12:16:02;8.63;;;4.30;;
75649;SDS011;64245;51.282;22.494;2023-04-06T12:18:29;11.60;;;6.70;;
75649;SDS011;64245;51.282;22.494;2023-04-06T12:20:55;9.75;;;5.45;;
75649;SDS011;64245;51.282;22.494;2023-04-06T12:23:21;11.65;;;4.90;;
75649;SDS011;64245;51.282;22.494;2023-04-06T12:25:46;10.48;;;6.15;;
75649;SDS011;64245;51.282;22.494;2023-04-06T12:28:12;7.97;;;5.45;;
75649;SDS011;64245;51.282;22.494;2023-04-06T12:30:38;6.93;;;3.60;;
75649;SDS011;64245;51.282;22.494;2023-04-06T12:33:06;6.57;;;4.35;;
75649;SDS011;64245;51.282;22.494;2023-04-06T12:35:34;8.30;;;5.68;;
75649;SDS011;64245;51.282;22.494;2023-04-06T12:38:02;10.70;;;5.20;;
75649;SDS011;64245;51.282;22.494;2023-04-06T12:40:28;8.25;;;5.20;;
75649;SDS011;64245;51.282;22.494;2023-04-06T12:42:53;7.10;;;4.75;;
75649;SDS011;64245;51.282;22.494;2023-04-06T12:45:19;8.30;;;5.45;;
75649;SDS011;64245;51.282;22.494;2023-04-06T12:47:45;9.75;;;5.57;;
75649;SDS011;64245;51.282;22.494;2023-04-06T12:50:11;11.88;;;5.97;;
75649;SDS011;64245;51.282;22.494;2023-04-06T12:52:37;9.50;;;5.07;;
75649;SDS011;64245;51.282;22.494;2023-04-06T12:55:02;9.57;;;4.50;;
75649;SDS011;64245;51.282;22.494;2023-04-06T12:57:30;11.10;;;5.53;;
75649;SDS011;64245;51.282;22.494;2023-04-06T12:59:56;13.80;;;6.88;;
75649;SDS011;64245;51.282;22.494;2023-04-06T13:02:23;9.35;;;5.10;;
75649;SDS011;64245;51.282;22.494;2023-04-06T13:04:49;12.32;;;6.15;;
75649;SDS011;64245;51.282;22.494;2023-04-06T13:07:15;6.03;;;3.90;;
75649;SDS011;64245;51.282;22.494;2023-04-06T13:09:41;11.55;;;5.30;;
75649;SDS011;64245;51.282;22.494;2023-04-06T13:12:07;9.30;;;4.88;;
75649;SDS011;64245;51.282;22.494;2023-04-06T13:14:32;7.85;;;5.20;;
75649;SDS011;64245;51.282;22.494;2023-04-06T13:16:58;7.05;;;3.17;;
75649;SDS011;64245;51.282;22.494;2023-04-06T13:19:24;7.28;;;4.07;;
75649;SDS011;64245;51.282;22.494;2023-04-06T13:21:51;9.73;;;5.03;;
75649;SDS011;64245;51.282;22.494;2023-04-06T13:24:16;10.35;;;4.75;;
75649;SDS011;64245;51.282;22.494;2023-04-06T13:26:42;10.57;;;5.65;;
75649;SDS011;64245;51.282;22.494;2023-04-06T13:29:07;10.93;;;6.32;;
75649;SDS011;64245;51.282;22.494;2023-04-06T13:31:33;6.45;;;3.67;;
75649;SDS011;64245;51.282;22.494;2023-04-06T13:33:59;12.38;;;6.75;;
75649;SDS011;64245;51.282;22.494;2023-04-06T13:36:25;8.13;;;5.22;;
75649;SDS011;64245;51.282;22.494;2023-04-06T13:38:51;11.63;;;5.88;;
75649;SDS011;64245;51.282;22.494;2023-04-06T13:41:18;11.82;;;6.47;;
75649;SDS011;64245;51.282;22.494;2023-04-06T13:43:46;8.82;;;5.78;;
75649;SDS011;64245;51.282;22.494;2023-04-06T13:46:12;11.27;;;6.15;;
75649;SDS011;64245;51.282;22.494;2023-04-06T13:48:37;11.50;;;5.90;;
75649;SDS011;64245;51.282;22.494;2023-04-06T13:51:10;13.57;;;5.85;;
75649;SDS011;64245;51.282;22.494;2023-04-06T13:53:36;8.55;;;5.30;;
75649;SDS011;64245;51.282;22.494;2023-04-06T13:56:02;11.77;;;6.38;;
75649;SDS011;64245;51.282;22.494;2023-04-06T13:58:28;11.60;;;6.30;;
75649;SDS011;64245;51.282;22.494;2023-04-06T14:00:55;14.60;;;8.18;;
75649;SDS011;64245;51.282;22.494;2023-04-06T14:03:20;12.88;;;6.88;;
75649;SDS011;64245;51.282;22.494;2023-04-06T14:05:47;13.45;;;6.28;;
75649;SDS011;64245;51.282;22.494;2023-04-06T14:08:13;14.50;;;7.32;;
75649;SDS011;64245;51.282;22.494;2023-04-06T14:10:39;9.93;;;5.63;;
75649;SDS011;64245;51.282;22.494;2023-04-06T14:13:07;9.63;;;6.03;;
75649;SDS011;64245;51.282;22.494;2023-04-06T14:15:33;13.45;;;7.28;;
75649;SDS011;64245;51.282;22.494;2023-04-06T14:17:59;15.30;;;6.97;;
75649;SDS011;64245;51.282;22.494;2023-04-06T14:20:25;13.13;;;7.32;;
75649;SDS011;64245;51.282;22.494;2023-04-06T14:22:51;12.85;;;6.10;;
75649;SDS011;64245;51.282;22.494;2023-04-06T14:25:18;8.30;;;4.60;;
75649;SDS011;64245;51.282;22.494;2023-04-06T14:27:43;13.18;;;6.57;;
75649;SDS011;64245;51.282;22.494;2023-04-06T14:30:09;14.07;;;7.72;;
75649;SDS011;64245;51.282;22.494;2023-04-06T14:32:36;16.10;;;8.35;;
75649;SDS011;64245;51.282;22.494;2023-04-06T14:35:03;12.02;;;6.55;;
75649;SDS011;64245;51.282;22.494;2023-04-06T14:37:29;14.93;;;8.45;;
75649;SDS011;64245;51.282;22.494;2023-04-06T14:39:55;14.60;;;6.85;;